Gabby Miller — WDE3399 — position and weather

sailwx.info

Track history (hours):
 
Tides and Currents Weather Stations Pressure Air Temp Water Temp Dewpoint Dewpoint Depression Visibility Wind Speed Wind Dir Waves Ship Positions

Gabby Miller

Owner: Miller's Launch, Staten Island, NY. More information available from US FCC via Universal Licensing System and Coast Guard Vessel Documentation Center.

Last reported at 2017-Nov-19 16:23 UTC. Time now 2017-Nov-25 01:51 UTC.
Position N 40°38' W 074°04'.

Length 5 m; draft 2 m.

Type: Other ship. MMSI: 367338610.

Date/timePositionNaut miles runAvg speedWind from/ knotsBaromVisibWave heightAir tempDewpointWater temp
2017-Nov-19 16:23N 40°38' W 074°04'0 0.6
2017-Nov-19 15:59N 40°38' W 074°04'0 0.2
2017-Nov-19 13:36N 40°38' W 074°04'0 0.1
2017-Nov-19 13:28N 40°38' W 074°04'0 0.0
2017-Nov-19 13:00N 40°38' W 074°04'0 0.1
2017-Nov-19 12:30N 40°38' W 074°04'0 0.0
2017-Nov-19 12:00N 40°38' W 074°04'0 0.0
2017-Nov-19 11:30N 40°38' W 074°04'0 0.1
2017-Nov-19 10:59N 40°38' W 074°04'1 1.2
2017-Nov-19 10:29N 40°38' W 074°04'0 0.0
2017-Nov-19 10:00N 40°38' W 074°04'0 0.1
2017-Nov-19 09:30N 40°38' W 074°04'0 0.0
2017-Nov-19 00:31N 40°38' W 074°04'0 5.3
2017-Nov-19 00:30N 40°38' W 074°04'0 0.3
2017-Nov-19 00:00N 40°38' W 074°04'2 4.5
2017-Nov-18 23:30N 40°40' W 074°02'3 6.0
2017-Nov-18 23:00N 40°42' W 073°60'2 4.5
2017-Nov-18 22:30N 40°44' W 073°58'2 4.5
2017-Nov-18 21:59N 40°43' W 073°55'0 0.0
2017-Nov-18 21:28N 40°43' W 073°55'0 0.0
2017-Nov-18 20:59N 40°43' W 073°55'0 0.0
2017-Nov-18 20:30N 40°43' W 073°55'0 0.0
2017-Nov-18 20:00N 40°43' W 073°55'0 0.0
2017-Nov-18 19:30N 40°43' W 073°55'0 0.0
2017-Nov-18 19:00N 40°43' W 073°55'0 0.0
2017-Nov-18 18:30N 40°43' W 073°55'0 0.0
2017-Nov-18 18:00N 40°43' W 073°55'0 0.0
2017-Nov-18 17:29N 40°43' W 073°55'0 0.0
2017-Nov-18 17:00N 40°43' W 073°55'0 0.0
2017-Nov-18 16:30N 40°43' W 073°55'0 0.0
2017-Nov-18 16:00N 40°43' W 073°55'0 0.0
2017-Nov-18 15:29N 40°43' W 073°55'0 0.0
2017-Nov-18 15:00N 40°43' W 073°55'0 0.0
2017-Nov-18 14:24N 40°43' W 073°55'0 0.0
2017-Nov-18 14:00N 40°43' W 073°55'0 0.0
2017-Nov-18 13:30N 40°43' W 073°55'2 3.4
2017-Nov-18 13:00N 40°44' W 073°57'4 7.3
2017-Nov-18 12:30N 40°42' W 074°00'4 7.3
2017-Nov-18 12:00N 40°39' W 074°03'1 2.2
2017-Nov-18 11:30N 40°38' W 074°04'0 0.6
2017-Nov-18 11:00N 40°38' W 074°04'0 0.0
2017-Nov-17 20:36N 40°38' W 074°04'0 0.2
2017-Nov-17 20:27N 40°38' W 074°04'0 0.8
2017-Nov-17 20:00N 40°38' W 074°04'1 0.9
2017-Nov-17 19:05N 40°39' W 074°04'1 7.2
2017-Nov-17 18:59N 40°39' W 074°05'3 5.6
2017-Nov-17 18:30N 40°39' W 074°09'4 7.2
2017-Nov-17 18:00N 40°43' W 074°07'2 3.9
2017-Nov-17 17:30N 40°44' W 074°06'1 1.2
2017-Nov-17 17:00N 40°44' W 074°05'3 6.0
2017-Nov-17 16:30N 40°42' W 074°07'4 7.1
2017-Nov-17 16:00N 40°39' W 074°09'3 6.6
2017-Nov-17 15:30N 40°39' W 074°05'1 1.4
2017-Nov-17 15:00N 40°38' W 074°04'0 0.0
2017-Nov-17 14:29N 40°38' W 074°04'0 0.0
2017-Nov-17 13:59N 40°38' W 074°04'0 0.0
2017-Nov-17 13:30N 40°38' W 074°04'0 0.1
2017-Nov-17 12:56N 40°38' W 074°04'0 0.2
2017-Nov-17 12:30N 40°38' W 074°04'0 0.0
2017-Nov-17 01:23N 40°38' W 074°04'1 1.6
2017-Nov-17 01:00N 40°39' W 074°04'2 4.3
2017-Nov-17 00:30N 40°40' W 074°02'3 5.5
2017-Nov-17 00:00N 40°42' W 073°60'1 2.9
2017-Nov-16 23:30N 40°44' W 073°58'2 3.3
2017-Nov-16 23:00N 40°45' W 073°58'1 0.3
2017-Nov-16 19:41N 40°46' W 073°57'1 5.6
2017-Nov-16 19:29N 40°45' W 073°58'2 5.0
2017-Nov-16 19:00N 40°43' W 073°59'2 4.3
2017-Nov-16 18:30N 40°41' W 074°01'2 4.3
2017-Nov-16 18:00N 40°40' W 074°02'2 3.8
2017-Nov-16 17:30N 40°38' W 074°04'0 0.0
2017-Nov-16 17:00N 40°38' W 074°04'0 0.1
2017-Nov-16 16:27N 40°38' W 074°04'0 0.1
2017-Nov-16 16:00N 40°38' W 074°04'1 2.3
2017-Nov-16 15:30N 40°39' W 074°04'4 7.2
2017-Nov-16 15:00N 40°42' W 074°02'1 2.2
2017-Nov-16 14:30N 40°44' W 074°02'0 0.0
2017-Nov-16 14:00N 40°44' W 074°02'0 0.0
2017-Nov-16 13:30N 40°44' W 074°02'1 2.6
2017-Nov-16 13:00N 40°45' W 074°01'1 1.9
2017-Nov-16 12:30N 40°46' W 074°01'0 0.3
2017-Nov-16 12:00N 40°46' W 074°01'0 0.0
2017-Nov-16 11:30N 40°46' W 074°01'0 0.2
2017-Nov-16 11:00N 40°46' W 074°01'3 7.1
2017-Nov-16 10:30N 40°42' W 074°02'4 7.0
2017-Nov-16 09:58N 40°39' W 074°04'1 0.1
2017-Nov-15 20:13N 40°38' W 074°04'0 0.4
2017-Nov-15 20:00N 40°38' W 074°04'2 3.6
2017-Nov-15 19:29N 40°39' W 074°07'2 3.3
2017-Nov-15 18:59N 40°40' W 074°08'3 6.9
2017-Nov-15 18:30N 40°43' W 074°06'2 0.7
2017-Nov-15 15:54N 40°44' W 074°05'0 0.3
2017-Nov-15 15:30N 40°44' W 074°05'0 0.2
2017-Nov-15 15:00N 40°44' W 074°05'0 0.2
2017-Nov-15 14:30N 40°44' W 074°05'0 0.0
2017-Nov-15 14:00N 40°44' W 074°05'1 1.1
2017-Nov-15 13:30N 40°44' W 074°06'3 5.2
2017-Nov-15 13:00N 40°42' W 074°07'3 6.4
2017-Nov-15 12:29N 40°39' W 074°09'5 0.3
2017-Nov-14 18:12N 40°40' W 074°03'1 7.1
2017-Nov-14 17:59N 40°42' W 074°02'0 0.5
2017-Nov-14 17:30N 40°42' W 074°03'0 0.0
2017-Nov-14 16:55N 40°42' W 074°03'0 0.0
2017-Nov-14 16:29N 40°42' W 074°03'0 0.0
2017-Nov-14 15:50N 40°42' W 074°03'0 0.0
2017-Nov-14 15:23N 40°42' W 074°03'0 1.2
2017-Nov-14 15:00N 40°41' W 074°02'2 3.9
2017-Nov-14 14:30N 40°39' W 074°04'1 2.6
2017-Nov-14 14:00N 40°38' W 074°04'0 0.0
2017-Nov-14 13:30N 40°38' W 074°04'0 0.0
2017-Nov-14 13:00N 40°38' W 074°04'  
2017-Nov-11 22:09N 40°38' W 074°04'0 0.1
2017-Nov-11 21:59N 40°38' W 074°04'3 6.5
2017-Nov-11 21:30N 40°41' W 074°02'4 7.5
2017-Nov-11 21:00N 40°43' W 073°58'6 6.0
2017-Nov-11 20:03N 40°48' W 073°54'0 6.2
2017-Nov-11 20:00N 40°48' W 073°53'2 4.4
2017-Nov-11 19:28N 40°48' W 073°50'15 1.3
2017-Nov-11 08:14N 40°38' W 074°04'0 0.4
2017-Nov-11 07:55N 40°38' W 074°04'0 0.1
2017-Nov-11 07:30N 40°38' W 074°04'0 0.0
2017-Nov-11 07:00N 40°38' W 074°04'0 0.0
2017-Nov-11 06:30N 40°38' W 074°04'0 0.0
2017-Nov-11 06:00N 40°38' W 074°04'0 0.0
2017-Nov-11 05:30N 40°38' W 074°04'0 0.0
2017-Nov-11 04:59N 40°38' W 074°04'0 0.0
2017-Nov-11 04:30N 40°38' W 074°04'0 0.0
2017-Nov-11 04:00N 40°38' W 074°04'0 0.0
2017-Nov-11 03:30N 40°38' W 074°04'0 0.0
2017-Nov-11 03:00N 40°38' W 074°04'0 0.0
2017-Nov-11 00:48N 40°38' W 074°04'0 0.0
2017-Nov-11 00:30N 40°38' W 074°04'0 0.0
2017-Nov-10 22:59N 40°38' W 074°04'1 2.1
2017-Nov-10 22:30N 40°39' W 074°05'2 2.9
2017-Nov-10 21:49N 40°39' W 074°08'1 3.3
2017-Nov-10 21:27N 40°39' W 074°09'3 6.9
2017-Nov-10 21:00N 40°42' W 074°07'2 4.6
2017-Nov-10 20:30N 40°44' W 074°07'0 0.3
2017-Nov-10 19:59N 40°45' W 074°07'1 2.6
2017-Nov-10 19:29N 40°44' W 074°09'0 0.0
2017-Nov-10 18:59N 40°44' W 074°09'0 0.0
2017-Nov-10 18:30N 40°44' W 074°09'0 0.0
2017-Nov-10 17:59N 40°44' W 074°09'0 0.0
2017-Nov-10 17:30N 40°44' W 074°09'1 1.6
2017-Nov-10 16:47N 40°45' W 074°08'1 1.1
2017-Nov-10 16:15N 40°44' W 074°07'0 0.8
2017-Nov-10 16:00N 40°44' W 074°07'0 0.5
2017-Nov-10 15:30N 40°44' W 074°07'2 3.3
2017-Nov-10 14:59N 40°42' W 074°07'2 4.9
2017-Nov-10 14:30N 40°40' W 074°08'2 1.5
2017-Nov-10 13:14N 40°39' W 074°07'1 6.4
2017-Nov-10 13:00N 40°39' W 074°05'1 1.6
2017-Nov-10 12:30N 40°38' W 074°04'0 0.1
2017-Nov-10 12:00N 40°38' W 074°04'0 0.0
2017-Nov-10 11:30N 40°38' W 074°04'0 0.0
2017-Nov-10 10:59N 40°38' W 074°04'0 0.0
2017-Nov-10 10:29N 40°38' W 074°04'0 0.0
2017-Nov-10 10:00N 40°38' W 074°04'0 0.0
2017-Nov-10 09:29N 40°38' W 074°04'0 0.0
2017-Nov-10 09:00N 40°38' W 074°04'0 0.0
2017-Nov-10 08:30N 40°38' W 074°04'0 0.0
2017-Nov-10 08:00N 40°38' W 074°04'0 0.0
2017-Nov-10 07:30N 40°38' W 074°04'0 0.0
2017-Nov-10 06:59N 40°38' W 074°04'0 0.0
2017-Nov-10 06:30N 40°38' W 074°04'0 0.0
2017-Nov-10 06:00N 40°38' W 074°04'0 0.0
2017-Nov-10 05:30N 40°38' W 074°04'0 0.0
2017-Nov-10 05:00N 40°38' W 074°04'0 0.0
2017-Nov-10 04:30N 40°38' W 074°04'0 0.0
2017-Nov-10 03:59N 40°38' W 074°04'0 0.0
2017-Nov-10 03:30N 40°38' W 074°04'0 0.0
2017-Nov-10 03:00N 40°38' W 074°04'0 0.0
2017-Nov-10 02:30N 40°38' W 074°04'0 0.0
2017-Nov-10 02:00N 40°38' W 074°04'0 0.0
2017-Nov-10 01:30N 40°38' W 074°04'0 0.0
2017-Nov-10 01:00N 40°38' W 074°04'0 0.0
2017-Nov-10 00:30N 40°38' W 074°04'0 0.0
2017-Nov-10 00:00N 40°38' W 074°04'0 0.0
2017-Nov-09 23:30N 40°38' W 074°04'0 0.0
2017-Nov-09 23:00N 40°38' W 074°04'0 0.0
2017-Nov-09 22:30N 40°38' W 074°04'0 0.0
2017-Nov-09 21:59N 40°38' W 074°04'0 0.0
2017-Nov-09 21:30N 40°38' W 074°04'0 0.0
2017-Nov-09 20:59N 40°38' W 074°04'0 0.0
2017-Nov-09 20:30N 40°38' W 074°04'0 0.0
2017-Nov-09 20:00N 40°38' W 074°04'0 0.0
2017-Nov-09 19:30N 40°38' W 074°04'0 0.0
2017-Nov-09 19:00N 40°38' W 074°04'0 0.0
2017-Nov-09 18:30N 40°38' W 074°04'0 0.0
2017-Nov-09 18:00N 40°38' W 074°04'0 0.0
2017-Nov-09 17:30N 40°38' W 074°04'0 0.0
2017-Nov-09 17:00N 40°38' W 074°04'0 0.0
2017-Nov-09 16:30N 40°38' W 074°04'  
Track history (hours):
 
Tides and Currents Weather Stations Pressure Air Temp Water Temp Dewpoint Dewpoint Depression Visibility Wind Speed Wind Dir Waves Ship Positions

Gabby Miller

Owner: Miller's Launch, Staten Island, NY. More information available from US FCC via Universal Licensing System and Coast Guard Vessel Documentation Center.

Last reported at 2017-Nov-19 16:23 UTC. Time now 2017-Nov-25 01:51 UTC.
Position N 40°38' W 074°04'.

Length 5 m; draft 2 m.

Type: Other ship. MMSI: 367338610.

Date/timePositionNaut miles runAvg speedWind from/ knotsBaromVisibWave heightAir tempDewpointWater temp
2017-Nov-19 16:23N 40°38' W 074°04'0 0.6
2017-Nov-19 15:59N 40°38' W 074°04'0 0.2
2017-Nov-19 13:36N 40°38' W 074°04'0 0.1
2017-Nov-19 13:28N 40°38' W 074°04'0 0.0
2017-Nov-19 13:00N 40°38' W 074°04'0 0.1
2017-Nov-19 12:30N 40°38' W 074°04'0 0.0
2017-Nov-19 12:00N 40°38' W 074°04'0 0.0
2017-Nov-19 11:30N 40°38' W 074°04'0 0.1
2017-Nov-19 10:59N 40°38' W 074°04'1 1.2
2017-Nov-19 10:29N 40°38' W 074°04'0 0.0
2017-Nov-19 10:00N 40°38' W 074°04'0 0.1
2017-Nov-19 09:30N 40°38' W 074°04'0 0.0
2017-Nov-19 00:31N 40°38' W 074°04'0 5.3
2017-Nov-19 00:30N 40°38' W 074°04'0 0.3
2017-Nov-19 00:00N 40°38' W 074°04'2 4.5
2017-Nov-18 23:30N 40°40' W 074°02'3 6.0
2017-Nov-18 23:00N 40°42' W 073°60'2 4.5
2017-Nov-18 22:30N 40°44' W 073°58'2 4.5
2017-Nov-18 21:59N 40°43' W 073°55'0 0.0
2017-Nov-18 21:28N 40°43' W 073°55'0 0.0
2017-Nov-18 20:59N 40°43' W 073°55'0 0.0
2017-Nov-18 20:30N 40°43' W 073°55'0 0.0
2017-Nov-18 20:00N 40°43' W 073°55'0 0.0
2017-Nov-18 19:30N 40°43' W 073°55'0 0.0
2017-Nov-18 19:00N 40°43' W 073°55'0 0.0
2017-Nov-18 18:30N 40°43' W 073°55'0 0.0
2017-Nov-18 18:00N 40°43' W 073°55'0 0.0
2017-Nov-18 17:29N 40°43' W 073°55'0 0.0
2017-Nov-18 17:00N 40°43' W 073°55'0 0.0
2017-Nov-18 16:30N 40°43' W 073°55'0 0.0
2017-Nov-18 16:00N 40°43' W 073°55'0 0.0
2017-Nov-18 15:29N 40°43' W 073°55'0 0.0
2017-Nov-18 15:00N 40°43' W 073°55'0 0.0
2017-Nov-18 14:24N 40°43' W 073°55'0 0.0
2017-Nov-18 14:00N 40°43' W 073°55'0 0.0
2017-Nov-18 13:30N 40°43' W 073°55'2 3.4
2017-Nov-18 13:00N 40°44' W 073°57'4 7.3
2017-Nov-18 12:30N 40°42' W 074°00'4 7.3
2017-Nov-18 12:00N 40°39' W 074°03'1 2.2
2017-Nov-18 11:30N 40°38' W 074°04'0 0.6
2017-Nov-18 11:00N 40°38' W 074°04'0 0.0
2017-Nov-17 20:36N 40°38' W 074°04'0 0.2
2017-Nov-17 20:27N 40°38' W 074°04'0 0.8
2017-Nov-17 20:00N 40°38' W 074°04'1 0.9
2017-Nov-17 19:05N 40°39' W 074°04'1 7.2
2017-Nov-17 18:59N 40°39' W 074°05'3 5.6
2017-Nov-17 18:30N 40°39' W 074°09'4 7.2
2017-Nov-17 18:00N 40°43' W 074°07'2 3.9
2017-Nov-17 17:30N 40°44' W 074°06'1 1.2
2017-Nov-17 17:00N 40°44' W 074°05'3 6.0
2017-Nov-17 16:30N 40°42' W 074°07'4 7.1
2017-Nov-17 16:00N 40°39' W 074°09'3 6.6
2017-Nov-17 15:30N 40°39' W 074°05'1 1.4
2017-Nov-17 15:00N 40°38' W 074°04'0 0.0
2017-Nov-17 14:29N 40°38' W 074°04'0 0.0
2017-Nov-17 13:59N 40°38' W 074°04'0 0.0
2017-Nov-17 13:30N 40°38' W 074°04'0 0.1
2017-Nov-17 12:56N 40°38' W 074°04'0 0.2
2017-Nov-17 12:30N 40°38' W 074°04'0 0.0
2017-Nov-17 01:23N 40°38' W 074°04'1 1.6
2017-Nov-17 01:00N 40°39' W 074°04'2 4.3
2017-Nov-17 00:30N 40°40' W 074°02'3 5.5
2017-Nov-17 00:00N 40°42' W 073°60'1 2.9
2017-Nov-16 23:30N 40°44' W 073°58'2 3.3
2017-Nov-16 23:00N 40°45' W 073°58'1 0.3
2017-Nov-16 19:41N 40°46' W 073°57'1 5.6
2017-Nov-16 19:29N 40°45' W 073°58'2 5.0
2017-Nov-16 19:00N 40°43' W 073°59'2 4.3
2017-Nov-16 18:30N 40°41' W 074°01'2 4.3
2017-Nov-16 18:00N 40°40' W 074°02'2 3.8
2017-Nov-16 17:30N 40°38' W 074°04'0 0.0
2017-Nov-16 17:00N 40°38' W 074°04'0 0.1
2017-Nov-16 16:27N 40°38' W 074°04'0 0.1
2017-Nov-16 16:00N 40°38' W 074°04'1 2.3
2017-Nov-16 15:30N 40°39' W 074°04'4 7.2
2017-Nov-16 15:00N 40°42' W 074°02'1 2.2
2017-Nov-16 14:30N 40°44' W 074°02'0 0.0
2017-Nov-16 14:00N 40°44' W 074°02'0 0.0
2017-Nov-16 13:30N 40°44' W 074°02'1 2.6
2017-Nov-16 13:00N 40°45' W 074°01'1 1.9
2017-Nov-16 12:30N 40°46' W 074°01'0 0.3
2017-Nov-16 12:00N 40°46' W 074°01'0 0.0
2017-Nov-16 11:30N 40°46' W 074°01'0 0.2
2017-Nov-16 11:00N 40°46' W 074°01'3 7.1
2017-Nov-16 10:30N 40°42' W 074°02'4 7.0
2017-Nov-16 09:58N 40°39' W 074°04'1 0.1
2017-Nov-15 20:13N 40°38' W 074°04'0 0.4
2017-Nov-15 20:00N 40°38' W 074°04'2 3.6
2017-Nov-15 19:29N 40°39' W 074°07'2 3.3
2017-Nov-15 18:59N 40°40' W 074°08'3 6.9
2017-Nov-15 18:30N 40°43' W 074°06'2 0.7
2017-Nov-15 15:54N 40°44' W 074°05'0 0.3
2017-Nov-15 15:30N 40°44' W 074°05'0 0.2
2017-Nov-15 15:00N 40°44' W 074°05'0 0.2
2017-Nov-15 14:30N 40°44' W 074°05'0 0.0
2017-Nov-15 14:00N 40°44' W 074°05'1 1.1
2017-Nov-15 13:30N 40°44' W 074°06'3 5.2
2017-Nov-15 13:00N 40°42' W 074°07'3 6.4
2017-Nov-15 12:29N 40°39' W 074°09'5 0.3
2017-Nov-14 18:12N 40°40' W 074°03'1 7.1
2017-Nov-14 17:59N 40°42' W 074°02'0 0.5
2017-Nov-14 17:30N 40°42' W 074°03'0 0.0
2017-Nov-14 16:55N 40°42' W 074°03'0 0.0
2017-Nov-14 16:29N 40°42' W 074°03'0 0.0
2017-Nov-14 15:50N 40°42' W 074°03'0 0.0
2017-Nov-14 15:23N 40°42' W 074°03'0 1.2
2017-Nov-14 15:00N 40°41' W 074°02'2 3.9
2017-Nov-14 14:30N 40°39' W 074°04'1 2.6
2017-Nov-14 14:00N 40°38' W 074°04'0 0.0
2017-Nov-14 13:30N 40°38' W 074°04'0 0.0
2017-Nov-14 13:00N 40°38' W 074°04'  
2017-Nov-11 22:09N 40°38' W 074°04'0 0.1
2017-Nov-11 21:59N 40°38' W 074°04'3 6.5
2017-Nov-11 21:30N 40°41' W 074°02'4 7.5
2017-Nov-11 21:00N 40°43' W 073°58'6 6.0
2017-Nov-11 20:03N 40°48' W 073°54'0 6.2
2017-Nov-11 20:00N 40°48' W 073°53'2 4.4
2017-Nov-11 19:28N 40°48' W 073°50'15 1.3
2017-Nov-11 08:14N 40°38' W 074°04'0 0.4
2017-Nov-11 07:55N 40°38' W 074°04'0 0.1
2017-Nov-11 07:30N 40°38' W 074°04'0 0.0
2017-Nov-11 07:00N 40°38' W 074°04'0 0.0
2017-Nov-11 06:30N 40°38' W 074°04'0 0.0
2017-Nov-11 06:00N 40°38' W 074°04'0 0.0
2017-Nov-11 05:30N 40°38' W 074°04'0 0.0
2017-Nov-11 04:59N 40°38' W 074°04'0 0.0
2017-Nov-11 04:30N 40°38' W 074°04'0 0.0
2017-Nov-11 04:00N 40°38' W 074°04'0 0.0
2017-Nov-11 03:30N 40°38' W 074°04'0 0.0
2017-Nov-11 03:00N 40°38' W 074°04'0 0.0
2017-Nov-11 00:48N 40°38' W 074°04'0 0.0
2017-Nov-11 00:30N 40°38' W 074°04'0 0.0
2017-Nov-10 22:59N 40°38' W 074°04'1 2.1
2017-Nov-10 22:30N 40°39' W 074°05'2 2.9
2017-Nov-10 21:49N 40°39' W 074°08'1 3.3
2017-Nov-10 21:27N 40°39' W 074°09'3 6.9
2017-Nov-10 21:00N 40°42' W 074°07'2 4.6
2017-Nov-10 20:30N 40°44' W 074°07'0 0.3
2017-Nov-10 19:59N 40°45' W 074°07'1 2.6
2017-Nov-10 19:29N 40°44' W 074°09'0 0.0
2017-Nov-10 18:59N 40°44' W 074°09'0 0.0
2017-Nov-10 18:30N 40°44' W 074°09'0 0.0
2017-Nov-10 17:59N 40°44' W 074°09'0 0.0
2017-Nov-10 17:30N 40°44' W 074°09'1 1.6
2017-Nov-10 16:47N 40°45' W 074°08'1 1.1
2017-Nov-10 16:15N 40°44' W 074°07'0 0.8
2017-Nov-10 16:00N 40°44' W 074°07'0 0.5
2017-Nov-10 15:30N 40°44' W 074°07'2 3.3
2017-Nov-10 14:59N 40°42' W 074°07'2 4.9
2017-Nov-10 14:30N 40°40' W 074°08'2 1.5
2017-Nov-10 13:14N 40°39' W 074°07'1 6.4
2017-Nov-10 13:00N 40°39' W 074°05'1 1.6
2017-Nov-10 12:30N 40°38' W 074°04'0 0.1
2017-Nov-10 12:00N 40°38' W 074°04'0 0.0
2017-Nov-10 11:30N 40°38' W 074°04'0 0.0
2017-Nov-10 10:59N 40°38' W 074°04'0 0.0
2017-Nov-10 10:29N 40°38' W 074°04'0 0.0
2017-Nov-10 10:00N 40°38' W 074°04'0 0.0
2017-Nov-10 09:29N 40°38' W 074°04'0 0.0
2017-Nov-10 09:00N 40°38' W 074°04'0 0.0
2017-Nov-10 08:30N 40°38' W 074°04'0 0.0
2017-Nov-10 08:00N 40°38' W 074°04'0 0.0
2017-Nov-10 07:30N 40°38' W 074°04'0 0.0
2017-Nov-10 06:59N 40°38' W 074°04'0 0.0
2017-Nov-10 06:30N 40°38' W 074°04'0 0.0
2017-Nov-10 06:00N 40°38' W 074°04'0 0.0
2017-Nov-10 05:30N 40°38' W 074°04'0 0.0
2017-Nov-10 05:00N 40°38' W 074°04'0 0.0
2017-Nov-10 04:30N 40°38' W 074°04'0 0.0
2017-Nov-10 03:59N 40°38' W 074°04'0 0.0
2017-Nov-10 03:30N 40°38' W 074°04'0 0.0
2017-Nov-10 03:00N 40°38' W 074°04'0 0.0
2017-Nov-10 02:30N 40°38' W 074°04'0 0.0
2017-Nov-10 02:00N 40°38' W 074°04'0 0.0
2017-Nov-10 01:30N 40°38' W 074°04'0 0.0
2017-Nov-10 01:00N 40°38' W 074°04'0 0.0
2017-Nov-10 00:30N 40°38' W 074°04'0 0.0
2017-Nov-10 00:00N 40°38' W 074°04'0 0.0
2017-Nov-09 23:30N 40°38' W 074°04'0 0.0
2017-Nov-09 23:00N 40°38' W 074°04'0 0.0
2017-Nov-09 22:30N 40°38' W 074°04'0 0.0
2017-Nov-09 21:59N 40°38' W 074°04'0 0.0
2017-Nov-09 21:30N 40°38' W 074°04'0 0.0
2017-Nov-09 20:59N 40°38' W 074°04'0 0.0
2017-Nov-09 20:30N 40°38' W 074°04'0 0.0
2017-Nov-09 20:00N 40°38' W 074°04'0 0.0
2017-Nov-09 19:30N 40°38' W 074°04'0 0.0
2017-Nov-09 19:00N 40°38' W 074°04'0 0.0
2017-Nov-09 18:30N 40°38' W 074°04'0 0.0
2017-Nov-09 18:00N 40°38' W 074°04'0 0.0
2017-Nov-09 17:30N 40°38' W 074°04'0 0.0
2017-Nov-09 17:00N 40°38' W 074°04'0 0.0
2017-Nov-09 16:30N 40°38' W 074°04'  

Dump ship's entire track history